createdAt,value
2019-04-21T00:00:58.143Z,9.60
2019-04-21T00:03:32.524Z,9.60
2019-04-21T00:06:16.308Z,9.60
2019-04-21T00:08:41.443Z,9.60
2019-04-21T00:11:20.612Z,9.60
2019-04-21T00:13:38.164Z,9.60
2019-04-21T00:16:00.338Z,9.70
2019-04-21T00:18:29.633Z,9.70
2019-04-21T00:21:12.138Z,9.70
2019-04-21T00:23:41.209Z,9.70
2019-04-21T00:26:16.439Z,9.80
2019-04-21T00:29:02.028Z,9.80
2019-04-21T00:31:23.074Z,9.80
2019-04-21T00:33:36.811Z,9.80
2019-04-21T00:36:12.554Z,9.90
2019-04-21T00:39:07.173Z,9.90
2019-04-21T00:41:25.003Z,9.90
2019-04-21T00:43:49.362Z,9.90
2019-04-21T00:46:17.962Z,9.90
2019-04-21T00:48:58.925Z,9.90
2019-04-21T00:51:43.621Z,9.90
2019-04-21T00:54:06.855Z,10.00
2019-04-21T00:56:35.345Z,10.00
2019-04-21T00:59:10.095Z,10.00
2019-04-21T01:01:31.306Z,10.00
2019-04-21T01:04:06.642Z,10.10
2019-04-21T01:06:38.111Z,10.10
2019-04-21T01:09:02.673Z,10.10
2019-04-21T01:11:32.043Z,10.20
2019-04-21T01:14:07.057Z,10.10
2019-04-21T01:16:39.263Z,10.10
2019-04-21T01:19:08.087Z,10.10
2019-04-21T01:21:16.475Z,10.20
2019-04-21T01:23:46.471Z,10.10
2019-04-21T01:26:31.195Z,10.10
2019-04-21T01:29:00.094Z,10.10
2019-04-21T01:31:34.971Z,10.10
2019-04-21T01:34:08.878Z,10.10
2019-04-21T01:36:38.659Z,10.00
2019-04-21T01:39:13.484Z,10.00
2019-04-21T01:41:46.306Z,10.00
2019-04-21T01:44:07.531Z,10.00
2019-04-21T01:46:33.896Z,10.00
2019-04-21T01:49:04.459Z,9.90
2019-04-21T01:51:57.837Z,9.90
2019-04-21T01:54:15.598Z,9.90
2019-04-21T01:56:53.872Z,9.90
2019-04-21T01:59:11.050Z,9.90
2019-04-21T02:01:57.532Z,9.90
2019-04-21T02:04:34.678Z,9.80
2019-04-21T02:06:59.995Z,9.70
2019-04-21T02:09:27.885Z,9.70
2019-04-21T02:12:06.053Z,9.60
2019-04-21T02:14:41.427Z,9.60
2019-04-21T02:17:02.365Z,9.60
2019-04-21T02:19:28.725Z,9.50
2019-04-21T02:21:55.286Z,9.60
2019-04-21T02:24:45.043Z,9.60
2019-04-21T02:27:07.175Z,9.60
2019-04-21T02:29:58.494Z,9.60
2019-04-21T02:32:14.524Z,9.70
2019-04-21T02:39:49.012Z,9.90
2019-04-21T02:47:27.319Z,10.20
2019-04-21T02:54:54.318Z,10.10
2019-04-21T03:02:47.272Z,9.90
2019-04-21T03:05:29.182Z,9.90
2019-04-21T03:07:55.515Z,9.80
2019-04-21T03:10:24.677Z,9.70
2019-04-21T03:12:50.901Z,9.70
2019-04-21T03:15:29.288Z,9.60
2019-04-21T03:17:56.910Z,9.60
2019-04-21T03:23:05.330Z,9.60
2019-04-21T03:28:11.224Z,9.50
2019-04-21T03:30:59.578Z,9.40
2019-04-21T03:38:13.100Z,9.00
2019-04-21T03:40:26.182Z,8.90
2019-04-21T03:43:04.550Z,8.90
2019-04-21T03:48:11.425Z,8.70
2019-04-21T03:56:50.924Z,8.60
2019-04-21T03:58:24.485Z,8.50
2019-04-21T04:03:53.823Z,8.40
2019-04-21T04:14:03.946Z,8.50
2019-04-21T04:16:26.848Z,8.60
2019-04-21T04:21:37.550Z,8.60
2019-04-21T04:24:08.997Z,8.60
2019-04-21T04:26:37.447Z,8.70
2019-04-21T04:34:09.875Z,8.50
2019-04-21T04:36:53.147Z,8.50
2019-04-21T04:44:42.267Z,8.70
2019-04-21T04:49:40.491Z,8.80
2019-04-21T04:52:09.747Z,8.90
2019-04-21T04:54:40.076Z,9.10
2019-04-21T05:02:19.788Z,9.10
2019-04-21T05:04:37.472Z,9.00
2019-04-21T05:06:58.353Z,8.90
2019-04-21T05:09:50.106Z,8.90
2019-04-21T05:11:55.660Z,8.90
2019-04-21T05:14:30.494Z,8.90
2019-04-21T05:17:23.037Z,9.00
2019-04-21T05:19:42.870Z,9.00
2019-04-21T05:22:04.981Z,9.00
2019-04-21T05:24:26.886Z,9.10
2019-04-21T05:26:53.593Z,9.10
2019-04-21T05:29:20.471Z,9.10
2019-04-21T05:32:03.164Z,9.10
2019-04-21T05:34:39.082Z,9.00
2019-04-21T05:37:29.265Z,9.00
2019-04-21T05:39:57.918Z,9.00
2019-04-21T05:42:30.426Z,9.00
2019-04-21T05:45:10.557Z,9.10
2019-04-21T05:47:40.381Z,9.10
2019-04-21T05:50:06.505Z,9.10
2019-04-21T05:52:45.549Z,9.20
2019-04-21T05:55:27.750Z,9.20
2019-04-21T05:57:54.393Z,9.30
2019-04-21T06:00:46.733Z,9.40
2019-04-21T06:03:03.732Z,9.60
2019-04-21T06:05:36.768Z,9.70
2019-04-21T06:08:03.758Z,9.90
2019-04-21T06:10:34.919Z,10.10
2019-04-21T06:13:05.630Z,10.20
2019-04-21T06:15:41.567Z,10.40
2019-04-21T06:18:05.370Z,10.50
2019-04-21T06:20:35.552Z,10.60
2019-04-21T06:23:09.200Z,10.70
2019-04-21T06:25:48.686Z,10.80
2019-04-21T06:28:04.737Z,10.80
2019-04-21T06:30:44.131Z,10.90
2019-04-21T06:33:01.892Z,11.00
2019-04-21T06:36:07.655Z,11.10
2019-04-21T06:38:16.599Z,11.10
2019-04-21T06:40:42.215Z,11.10
2019-04-21T06:43:25.902Z,11.20
2019-04-21T06:45:48.223Z,11.30
2019-04-21T06:48:21.134Z,11.30
2019-04-21T06:50:46.771Z,11.30
2019-04-21T06:53:24.116Z,11.40
2019-04-21T06:55:49.730Z,11.50
2019-04-21T06:58:10.151Z,11.60
2019-04-21T07:00:45.635Z,11.70
2019-04-21T07:03:19.593Z,11.90
2019-04-21T07:05:48.455Z,12.10
2019-04-21T07:08:31.523Z,12.20
2019-04-21T07:10:51.789Z,12.40
2019-04-21T07:13:19.173Z,12.60
2019-04-21T07:15:50.190Z,12.70
2019-04-21T07:18:19.545Z,12.80
2019-04-21T07:20:53.172Z,12.90
2019-04-21T07:23:28.542Z,12.90
2019-04-21T07:25:51.969Z,13.00
2019-04-21T07:28:28.512Z,13.00
2019-04-21T07:30:59.420Z,13.00
2019-04-21T07:33:50.626Z,13.10
2019-04-21T07:35:59.441Z,13.30
2019-04-21T07:38:27.431Z,13.50
2019-04-21T07:40:54.888Z,13.60
2019-04-21T07:43:26.009Z,13.70
2019-04-21T07:45:52.502Z,13.80
2019-04-21T07:48:38.095Z,13.80
2019-04-21T07:51:25.181Z,13.80
2019-04-21T07:54:13.969Z,13.80
2019-04-21T07:56:09.714Z,13.80
2019-04-21T07:58:58.220Z,13.80
2019-04-21T08:01:24.329Z,13.90
2019-04-21T08:03:54.441Z,13.90
2019-04-21T08:06:28.266Z,14.00
2019-04-21T08:08:53.504Z,14.00
2019-04-21T08:11:21.074Z,14.00
2019-04-21T08:13:57.346Z,14.00
2019-04-21T08:16:30.608Z,14.10
2019-04-21T08:18:59.781Z,14.30
2019-04-21T08:21:27.846Z,14.60
2019-04-21T08:23:54.209Z,14.90
2019-04-21T08:26:35.942Z,15.10
2019-04-21T08:29:06.677Z,15.40
2019-04-21T08:31:39.261Z,15.70
2019-04-21T08:34:07.702Z,15.90
2019-04-21T08:36:44.958Z,16.10
2019-04-21T08:39:07.219Z,16.40
2019-04-21T08:41:37.432Z,16.60
2019-04-21T08:44:02.515Z,16.70
2019-04-21T08:46:43.833Z,16.80
2019-04-21T08:49:08.047Z,16.80
2019-04-21T08:51:40.857Z,17.00
2019-04-21T08:54:09.540Z,17.10
2019-04-21T08:56:45.349Z,17.20
2019-04-21T08:59:22.209Z,17.20
2019-04-21T09:02:01.308Z,17.30
2019-04-21T09:04:28.613Z,17.50
2019-04-21T09:09:35.235Z,17.90
2019-04-21T09:12:12.356Z,18.10
2019-04-21T09:14:41.584Z,18.30
2019-04-21T09:17:09.683Z,18.50
2019-04-21T09:19:51.430Z,18.70
2019-04-21T09:22:13.224Z,18.90
2019-04-21T09:24:46.892Z,19.10
2019-04-21T09:27:14.240Z,19.10
2019-04-21T09:29:35.830Z,19.20
2019-04-21T09:31:59.623Z,19.30
2019-04-21T09:34:35.802Z,19.40
2019-04-21T09:37:12.697Z,19.40
2019-04-21T09:39:31.565Z,19.50
2019-04-21T09:42:02.841Z,19.50
2019-04-21T09:44:36.756Z,19.60
2019-04-21T09:47:05.139Z,19.80
2019-04-21T09:49:33.900Z,19.80
2019-04-21T09:52:07.762Z,19.90
2019-04-21T09:54:40.565Z,19.90
2019-04-21T09:57:10.652Z,19.90
2019-04-21T09:59:40.083Z,20.00
2019-04-21T10:02:15.588Z,19.90
2019-04-21T10:04:38.015Z,19.90
2019-04-21T10:07:07.143Z,19.90
2019-04-21T10:09:37.593Z,20.00
2019-04-21T10:12:07.524Z,20.10
2019-04-21T10:14:36.823Z,20.20
2019-04-21T10:17:29.595Z,20.50
2019-04-21T10:19:58.808Z,20.80
2019-04-21T10:22:28.859Z,20.90
2019-04-21T10:24:58.496Z,21.10
2019-04-21T10:27:27.519Z,21.30
2019-04-21T10:29:58.010Z,21.30
2019-04-21T10:32:28.200Z,21.20
2019-04-21T10:34:57.442Z,21.10
2019-04-21T10:37:39.672Z,21.10
2019-04-21T10:39:57.770Z,21.20
2019-04-21T10:42:27.039Z,21.10
2019-04-21T10:44:56.885Z,21.00
2019-04-21T10:47:29.322Z,20.90
2019-04-21T10:49:58.407Z,20.90
2019-04-21T10:52:30.945Z,20.80
2019-04-21T10:55:19.132Z,20.90
2019-04-21T10:57:34.739Z,21.10
2019-04-21T11:00:08.371Z,21.40
2019-04-21T11:02:41.095Z,21.70
2019-04-21T11:05:10.072Z,21.70
2019-04-21T11:08:05.690Z,21.50
2019-04-21T11:10:23.449Z,21.40
2019-04-21T11:12:52.712Z,21.30
2019-04-21T11:15:23.192Z,21.30
2019-04-21T11:17:52.415Z,21.40
2019-04-21T11:20:22.611Z,21.40
2019-04-21T11:22:51.737Z,21.40
2019-04-21T11:25:22.011Z,21.50
2019-04-21T11:27:51.202Z,21.70
2019-04-21T11:30:20.153Z,21.90
2019-04-21T11:32:49.756Z,22.10
2019-04-21T11:35:19.696Z,22.30
2019-04-21T11:37:50.481Z,22.60
2019-04-21T11:40:21.553Z,22.90
2019-04-21T11:42:51.566Z,23.10
2019-04-21T11:45:37.896Z,23.10
2019-04-21T11:48:24.274Z,23.10
2019-04-21T11:50:57.273Z,23.00
2019-04-21T11:53:26.624Z,23.10
2019-04-21T11:55:56.945Z,23.00
2019-04-21T11:58:26.344Z,22.60
2019-04-21T12:01:00.635Z,22.40
2019-04-21T12:03:29.789Z,22.30
2019-04-21T12:05:59.532Z,22.10
2019-04-21T12:08:36.500Z,22.00
2019-04-21T12:10:59.727Z,21.90
2019-04-21T12:13:29.894Z,21.70
2019-04-21T12:15:59.400Z,21.50
2019-04-21T12:18:30.140Z,21.50
2019-04-21T12:20:59.080Z,21.40
2019-04-21T12:23:28.023Z,21.50
2019-04-21T12:25:57.151Z,21.60
2019-04-21T12:28:26.099Z,21.60
2019-04-21T12:30:55.966Z,21.60
2019-04-21T12:33:36.253Z,21.60
2019-04-21T12:36:09.456Z,21.70
2019-04-21T12:38:48.209Z,21.80
2019-04-21T12:41:10.671Z,22.30
2019-04-21T12:43:39.768Z,23.10
2019-04-21T12:46:09.703Z,23.20
2019-04-21T12:48:39.916Z,23.00
2019-04-21T12:51:10.101Z,22.90
2019-04-21T12:53:39.680Z,23.00
2019-04-21T12:56:09.464Z,23.20
2019-04-21T12:58:39.534Z,23.30
2019-04-21T13:01:09.329Z,23.40
2019-04-21T13:03:39.992Z,23.00
2019-04-21T13:06:09.970Z,22.60
2019-04-21T13:08:50.903Z,22.70
2019-04-21T13:11:11.353Z,22.20
2019-04-21T13:13:42.049Z,21.80
2019-04-21T13:16:11.664Z,21.60
2019-04-21T13:18:41.703Z,21.50
2019-04-21T13:21:11.897Z,21.30
2019-04-21T13:23:41.219Z,21.20
2019-04-21T13:26:11.391Z,21.20
2019-04-21T13:28:40.649Z,21.40
2019-04-21T13:31:09.770Z,21.80
2019-04-21T13:33:39.896Z,22.40
2019-04-21T13:36:09.694Z,22.60
2019-04-21T13:38:50.479Z,22.60
2019-04-21T13:41:32.561Z,22.40
2019-04-21T13:43:50.884Z,22.50
2019-04-21T13:46:20.685Z,22.40
2019-04-21T13:48:50.717Z,22.30
2019-04-21T13:51:20.129Z,22.50
2019-04-21T13:53:49.490Z,22.70
2019-04-21T13:56:18.810Z,22.70
2019-04-21T13:58:48.417Z,22.40
2019-04-21T14:01:18.123Z,22.40
2019-04-21T14:03:47.546Z,22.50
2019-04-21T14:06:16.723Z,22.50
2019-04-21T14:08:47.167Z,22.30
2019-04-21T14:11:17.620Z,22.30
2019-04-21T14:13:48.256Z,22.30
2019-04-21T14:16:18.195Z,22.10
2019-04-21T14:18:47.712Z,22.10
2019-04-21T14:21:16.881Z,22.30
2019-04-21T14:23:49.267Z,22.20
2019-04-21T14:26:18.254Z,22.10
2019-04-21T14:28:47.451Z,22.00
2019-04-21T14:31:17.088Z,21.90
2019-04-21T14:33:46.096Z,22.00
2019-04-21T14:36:16.808Z,22.00
2019-04-21T14:38:46.941Z,22.10
2019-04-21T14:41:17.829Z,22.30
2019-04-21T14:43:48.008Z,22.40
2019-04-21T14:46:35.012Z,22.20
2019-04-21T14:49:09.165Z,22.10
2019-04-21T14:51:41.127Z,22.00
2019-04-21T14:54:11.959Z,21.50
2019-04-21T14:56:40.913Z,21.70
2019-04-21T14:59:10.995Z,21.30
2019-04-21T15:01:40.027Z,20.30
2019-04-21T15:04:09.860Z,18.90
2019-04-21T15:06:39.327Z,18.20
2019-04-21T15:09:11.123Z,18.50
2019-04-21T15:11:40.205Z,19.00
2019-04-21T15:14:09.104Z,19.40
2019-04-21T15:16:38.670Z,20.10
2019-04-21T15:19:08.625Z,21.10
2019-04-21T15:21:37.664Z,21.00
2019-04-21T15:24:06.888Z,21.20
2019-04-21T15:26:36.026Z,21.10
2019-04-21T15:29:05.037Z,21.30
2019-04-21T15:31:37.427Z,21.20
2019-04-21T15:34:05.577Z,21.30
2019-04-21T15:36:35.204Z,21.30
2019-04-21T15:39:06.137Z,21.40
2019-04-21T15:41:36.500Z,21.30
2019-04-21T15:44:06.453Z,20.90
2019-04-21T15:46:37.514Z,20.80
2019-04-21T15:49:07.040Z,20.60
2019-04-21T15:51:35.994Z,20.40
2019-04-21T15:54:06.662Z,20.30
2019-04-21T15:56:40.764Z,20.20
2019-04-21T15:59:14.751Z,20.20
2019-04-21T16:01:46.394Z,19.90
2019-04-21T16:04:16.741Z,19.60
2019-04-21T16:06:45.792Z,19.60
2019-04-21T16:09:17.691Z,19.40
2019-04-21T16:11:47.599Z,19.40
2019-04-21T16:14:16.742Z,19.30
2019-04-21T16:16:45.600Z,19.00
2019-04-21T16:19:14.713Z,18.90
2019-04-21T16:21:46.292Z,18.70
2019-04-21T16:24:16.204Z,18.60
2019-04-21T16:26:46.850Z,18.40
2019-04-21T16:29:17.264Z,18.30
2019-04-21T16:31:47.008Z,18.40
2019-04-21T16:34:15.993Z,18.30
2019-04-21T16:36:47.579Z,18.40
2019-04-21T16:39:17.663Z,18.40
2019-04-21T16:41:46.768Z,18.40
2019-04-21T16:44:16.983Z,18.30
2019-04-21T16:46:45.913Z,18.10
2019-04-21T16:49:17.979Z,17.90
2019-04-21T16:51:50.016Z,18.00
2019-04-21T16:54:21.872Z,17.80
2019-04-21T16:56:55.307Z,17.60
2019-04-21T16:59:28.587Z,17.50
2019-04-21T17:01:58.762Z,17.40
2019-04-21T17:04:28.790Z,17.00
2019-04-21T17:06:58.976Z,16.50
2019-04-21T17:09:32.644Z,16.20
2019-04-21T17:12:06.381Z,16.30
2019-04-21T17:14:55.541Z,16.40
2019-04-21T17:17:32.294Z,16.40
2019-04-21T17:19:46.666Z,16.40
2019-04-21T17:22:13.667Z,16.40
2019-04-21T17:24:44.777Z,16.40
2019-04-21T17:27:15.296Z,16.30
2019-04-21T17:29:44.705Z,16.20
2019-04-21T17:32:14.241Z,15.90
2019-04-21T17:34:43.784Z,15.70
2019-04-21T17:37:13.098Z,15.50
2019-04-21T17:39:42.946Z,15.30
2019-04-21T17:42:25.488Z,15.00
2019-04-21T17:44:43.355Z,14.80
2019-04-21T17:47:25.311Z,14.80
2019-04-21T17:49:46.715Z,14.80
2019-04-21T17:52:23.139Z,14.70
2019-04-21T17:54:59.747Z,14.50
2019-04-21T17:57:45.604Z,14.30
2019-04-21T18:00:13.849Z,14.10
2019-04-21T18:02:51.083Z,14.00
2019-04-21T18:05:21.073Z,13.80
2019-04-21T18:07:47.871Z,13.70
2019-04-21T18:10:15.659Z,13.60
2019-04-21T18:12:42.550Z,13.50
2019-04-21T18:15:18.241Z,13.40
2019-04-21T18:17:32.375Z,13.30
2019-04-21T18:20:01.874Z,13.20
2019-04-21T18:22:41.498Z,13.20
2019-04-21T18:25:24.236Z,13.10
2019-04-21T18:27:42.426Z,13.00
2019-04-21T18:30:34.033Z,12.90
2019-04-21T18:33:05.842Z,12.70
2019-04-21T18:35:50.880Z,12.60
2019-04-21T18:38:29.748Z,12.50
2019-04-21T18:40:54.771Z,12.30
2019-04-21T18:46:36.010Z,12.10
2019-04-21T18:48:49.715Z,12.00
2019-04-21T18:51:19.114Z,11.90
2019-04-21T18:54:16.132Z,11.80
2019-04-21T18:56:25.276Z,11.70
2019-04-21T18:58:54.520Z,11.60
2019-04-21T19:01:27.754Z,11.60
2019-04-21T19:03:56.152Z,11.60
2019-04-21T19:06:42.362Z,11.50
2019-04-21T19:09:14.199Z,11.50
2019-04-21T19:11:49.721Z,11.50
2019-04-21T19:14:36.239Z,11.40
2019-04-21T19:17:29.116Z,11.30
2019-04-21T19:22:01.746Z,11.30
2019-04-21T19:24:41.372Z,11.30
2019-04-21T19:29:28.894Z,11.20
2019-04-21T19:32:04.195Z,11.10
2019-04-21T19:34:22.364Z,11.10
2019-04-21T19:36:51.183Z,11.00
2019-04-21T19:39:34.953Z,10.90
2019-04-21T19:42:01.951Z,10.80
2019-04-21T19:44:38.269Z,10.80
2019-04-21T19:47:10.501Z,10.90
2019-04-21T19:49:48.165Z,10.90
2019-04-21T19:52:01.247Z,10.90
2019-04-21T19:54:32.094Z,10.90
2019-04-21T19:56:55.387Z,10.90
2019-04-21T19:59:34.522Z,10.90
2019-04-21T20:01:58.457Z,10.90
2019-04-21T20:04:34.518Z,10.80
2019-04-21T20:07:15.539Z,10.70
2019-04-21T20:09:45.149Z,10.70
2019-04-21T20:12:29.859Z,10.60
2019-04-21T20:14:59.118Z,10.70
2019-04-21T20:17:31.203Z,10.80
2019-04-21T20:19:44.452Z,10.70
2019-04-21T20:22:14.730Z,10.70
2019-04-21T20:24:49.850Z,10.60
2019-04-21T20:27:23.981Z,10.50
2019-04-21T20:30:07.310Z,10.40
2019-04-21T20:32:38.109Z,10.30
2019-04-21T20:35:17.133Z,10.20
2019-04-21T20:37:37.287Z,10.20
2019-04-21T20:40:00.624Z,10.20
2019-04-21T20:42:39.035Z,10.10
2019-04-21T20:45:30.722Z,10.00
2019-04-21T20:47:37.761Z,10.00
2019-04-21T20:50:17.690Z,9.90
2019-04-21T20:52:53.832Z,9.80
2019-04-21T20:55:21.531Z,9.80
2019-04-21T20:57:54.523Z,9.80
2019-04-21T21:00:34.010Z,9.70
2019-04-21T21:03:07.032Z,9.60
2019-04-21T21:05:33.996Z,9.50
2019-04-21T21:08:14.899Z,9.50
2019-04-21T21:10:38.568Z,9.40
2019-04-21T21:13:22.249Z,9.40
2019-04-21T21:16:04.142Z,9.40
2019-04-21T21:18:44.918Z,9.40
2019-04-21T21:20:55.603Z,9.40
2019-04-21T21:23:20.375Z,9.40
2019-04-21T21:25:57.325Z,9.40
2019-04-21T21:28:26.653Z,9.40
2019-04-21T21:30:59.463Z,9.30
2019-04-21T21:33:35.460Z,9.30
2019-04-21T21:36:13.784Z,9.30
2019-04-21T21:38:53.121Z,9.30
2019-04-21T21:41:15.598Z,9.30
2019-04-21T21:43:37.781Z,9.30
2019-04-21T21:46:26.638Z,9.30
2019-04-21T21:48:54.002Z,9.20
2019-04-21T21:51:29.320Z,9.20
2019-04-21T21:53:48.575Z,9.20
2019-04-21T21:56:20.873Z,9.10
2019-04-21T21:58:51.987Z,9.10
2019-04-21T22:01:31.997Z,9.10
2019-04-21T22:04:02.276Z,9.00
2019-04-21T22:06:38.725Z,8.90
2019-04-21T22:09:00.762Z,8.90
2019-04-21T22:11:35.903Z,8.90
2019-04-21T22:14:08.518Z,8.90
2019-04-21T22:16:46.684Z,8.80
2019-04-21T22:19:21.892Z,8.80
2019-04-21T22:22:00.949Z,8.80
2019-04-21T22:24:29.516Z,8.70
2019-04-21T22:27:03.130Z,8.70
2019-04-21T22:29:41.865Z,8.70
2019-04-21T22:32:14.826Z,8.70
2019-04-21T22:34:47.024Z,8.70
2019-04-21T22:37:26.008Z,8.60
2019-04-21T22:39:57.857Z,8.60
2019-04-21T22:42:21.119Z,8.60
2019-04-21T22:44:46.393Z,8.60
2019-04-21T22:47:25.746Z,8.60
2019-04-21T22:49:52.707Z,8.50
2019-04-21T22:52:26.070Z,8.50
2019-04-21T22:54:55.993Z,8.50
2019-04-21T22:57:28.787Z,8.40
2019-04-21T23:00:01.828Z,8.40
2019-04-21T23:02:33.584Z,8.40
2019-04-21T23:05:04.515Z,8.40
2019-04-21T23:07:41.427Z,8.40
2019-04-21T23:10:07.480Z,8.40
2019-04-21T23:12:41.793Z,8.40
2019-04-21T23:15:15.312Z,8.40
2019-04-21T23:18:02.169Z,8.40
2019-04-21T23:20:37.333Z,8.50
2019-04-21T23:23:14.971Z,8.50
2019-04-21T23:25:36.522Z,8.50
2019-04-21T23:28:09.472Z,8.50
2019-04-21T23:30:44.778Z,8.50
2019-04-21T23:32:59.686Z,8.50
2019-04-21T23:35:32.004Z,8.50
2019-04-21T23:37:58.708Z,8.50
2019-04-21T23:40:29.172Z,8.50
2019-04-21T23:43:00.041Z,8.50
2019-04-21T23:45:34.016Z,8.50
2019-04-21T23:48:18.464Z,8.50
2019-04-21T23:50:44.950Z,8.40
2019-04-21T23:53:05.685Z,8.40
2019-04-21T23:55:35.042Z,8.50
2019-04-21T23:58:13.406Z,8.50
